createdAt,value
2023-03-17T00:01:20.976Z,97.70
2023-03-17T00:03:49.663Z,97.70
2023-03-17T00:06:24.593Z,97.50
2023-03-17T00:08:51.100Z,97.30
2023-03-17T00:11:17.866Z,97.60
2023-03-17T00:13:45.460Z,98.10
2023-03-17T00:16:26.372Z,98.80
2023-03-17T00:18:54.972Z,98.70
2023-03-17T00:21:31.742Z,98.90
2023-03-17T00:23:58.936Z,98.70
2023-03-17T00:26:29.150Z,98.90
2023-03-17T00:28:55.651Z,99.10
2023-03-17T00:31:26.570Z,98.60
2023-03-17T00:33:54.648Z,98.00
2023-03-17T00:36:33.439Z,97.90
2023-03-17T00:39:00.677Z,98.20
2023-03-17T00:41:28.642Z,98.10
2023-03-17T00:43:55.105Z,98.50
2023-03-17T00:46:34.857Z,99.20
2023-03-17T00:51:43.941Z,99.30
2023-03-17T00:54:11.250Z,99.50
2023-03-17T00:56:40.060Z,98.90
2023-03-17T00:59:25.526Z,99.50
2023-03-17T01:01:52.821Z,99.50
2023-03-17T01:04:19.391Z,99.70
2023-03-17T01:06:47.531Z,99.10
2023-03-17T01:09:18.609Z,99.10
2023-03-17T01:11:45.402Z,98.70
2023-03-17T01:14:12.713Z,98.50
2023-03-17T01:16:39.966Z,98.00
2023-03-17T01:19:06.521Z,99.00
2023-03-17T01:21:33.055Z,98.60
2023-03-17T01:23:59.629Z,98.50
2023-03-17T01:26:26.230Z,99.20
2023-03-17T01:28:53.145Z,99.40
2023-03-17T01:31:19.894Z,99.70
2023-03-17T01:33:46.655Z,99.80
2023-03-17T01:36:13.239Z,99.50
2023-03-17T01:38:40.120Z,98.90
2023-03-17T01:41:06.633Z,99.10
2023-03-17T01:43:33.548Z,99.20
2023-03-17T01:46:38.428Z,99.00
2023-03-17T01:49:34.717Z,98.10
2023-03-17T01:52:37.614Z,97.90
2023-03-17T01:55:11.003Z,98.90
2023-03-17T01:57:44.819Z,99.30
2023-03-17T02:00:19.211Z,99.40
2023-03-17T02:02:53.209Z,99.90
2023-03-17T02:05:27.814Z,99.90
2023-03-17T02:07:55.489Z,99.90
2023-03-17T02:10:27.623Z,99.90
2023-03-17T02:13:03.122Z,99.90
2023-03-17T02:15:44.071Z,99.90
2023-03-17T02:18:12.283Z,99.90
2023-03-17T02:22:12.352Z,99.90
2023-03-17T02:24:55.859Z,99.40
2023-03-17T02:27:34.037Z,99.80
2023-03-17T02:30:01.486Z,99.90
2023-03-17T02:32:30.615Z,99.90
2023-03-17T02:34:57.328Z,99.80
2023-03-17T02:37:23.786Z,99.70
2023-03-17T02:39:50.281Z,99.70
2023-03-17T02:42:17.027Z,99.40
2023-03-17T02:44:44.262Z,99.10
2023-03-17T02:47:11.606Z,98.60
2023-03-17T02:49:40.717Z,98.30
2023-03-17T02:52:07.777Z,98.50
2023-03-17T02:54:34.254Z,99.60
2023-03-17T02:57:01.043Z,99.90
2023-03-17T02:59:27.930Z,99.90
2023-03-17T03:01:55.446Z,99.90
2023-03-17T03:04:23.537Z,99.90
2023-03-17T03:06:50.388Z,99.90
2023-03-17T03:09:17.191Z,99.90
2023-03-17T03:11:44.206Z,99.90
2023-03-17T03:14:11.215Z,99.90
2023-03-17T03:16:38.048Z,99.70
2023-03-17T03:19:06.268Z,99.90
2023-03-17T03:21:33.115Z,99.90
2023-03-17T03:23:59.583Z,99.60
2023-03-17T03:26:26.501Z,99.60
2023-03-17T03:28:53.169Z,99.60
2023-03-17T03:31:19.964Z,99.90
2023-03-17T03:33:46.480Z,99.90
2023-03-17T03:36:12.935Z,99.90
2023-03-17T03:38:39.465Z,99.90
2023-03-17T03:41:06.534Z,99.90
2023-03-17T03:43:33.548Z,99.90
2023-03-17T03:46:00.130Z,99.90
2023-03-17T03:48:26.627Z,99.90
2023-03-17T03:51:02.015Z,99.90
2023-03-17T03:53:29.223Z,99.90
2023-03-17T03:55:56.174Z,99.90
2023-03-17T03:58:22.648Z,99.60
2023-03-17T04:00:49.638Z,99.30
2023-03-17T04:03:16.596Z,99.10
2023-03-17T04:05:43.103Z,98.60
2023-03-17T04:08:10.554Z,99.00
2023-03-17T04:10:37.269Z,99.40
2023-03-17T04:13:03.729Z,99.30
2023-03-17T04:15:30.436Z,99.50
2023-03-17T04:17:56.918Z,99.90
2023-03-17T04:20:23.405Z,99.90
2023-03-17T04:22:49.910Z,99.90
2023-03-17T04:25:16.483Z,99.90
2023-03-17T04:27:43.004Z,99.90
2023-03-17T04:30:13.740Z,99.90
2023-03-17T04:32:40.996Z,99.90
2023-03-17T04:35:14.292Z,99.70
2023-03-17T04:37:41.189Z,99.90
2023-03-17T04:40:10.389Z,99.90
2023-03-17T04:42:38.096Z,99.90
2023-03-17T04:45:06.744Z,99.90
2023-03-17T04:47:33.680Z,99.90
2023-03-17T04:50:00.596Z,99.60
2023-03-17T04:52:27.623Z,99.60
2023-03-17T04:54:54.280Z,99.40
2023-03-17T04:57:21.470Z,98.90
2023-03-17T04:59:47.958Z,99.40
2023-03-17T05:02:14.486Z,99.70
2023-03-17T05:04:44.582Z,99.90
2023-03-17T05:07:12.201Z,99.90
2023-03-17T05:09:38.703Z,99.90
2023-03-17T05:12:07.777Z,99.90
2023-03-17T05:14:34.260Z,99.90
2023-03-17T05:17:00.764Z,99.90
2023-03-17T05:19:27.525Z,99.90
2023-03-17T05:21:53.985Z,99.90
2023-03-17T05:24:20.486Z,99.50
2023-03-17T05:26:46.973Z,99.20
2023-03-17T05:29:13.796Z,99.60
2023-03-17T05:31:41.059Z,99.70
2023-03-17T05:34:07.532Z,99.70
2023-03-17T05:36:34.058Z,99.30
2023-03-17T05:39:00.713Z,98.90
2023-03-17T05:41:27.625Z,99.20
2023-03-17T05:43:54.144Z,99.20
2023-03-17T05:46:21.570Z,99.30
2023-03-17T05:48:48.183Z,99.30
2023-03-17T05:51:14.960Z,99.50
2023-03-17T05:53:41.795Z,99.60
2023-03-17T05:56:08.691Z,99.10
2023-03-17T05:58:35.186Z,99.40
2023-03-17T06:01:01.682Z,99.20
2023-03-17T06:03:28.160Z,99.60
2023-03-17T06:05:54.661Z,99.40
2023-03-17T06:08:21.115Z,99.20
2023-03-17T06:10:47.812Z,98.90
2023-03-17T06:13:15.027Z,99.30
2023-03-17T06:15:42.387Z,99.40
2023-03-17T06:18:09.003Z,99.20
2023-03-17T06:20:35.928Z,99.10
2023-03-17T06:23:05.459Z,98.70
2023-03-17T06:25:34.760Z,98.10
2023-03-17T06:28:02.943Z,97.40
2023-03-17T06:30:31.971Z,96.60
2023-03-17T06:32:58.531Z,95.60
2023-03-17T06:35:25.097Z,95.60
2023-03-17T06:37:51.657Z,95.30
2023-03-17T06:40:18.441Z,94.60
2023-03-17T06:42:47.448Z,94.10
2023-03-17T06:45:14.162Z,93.50
2023-03-17T06:47:40.738Z,93.00
2023-03-17T06:50:11.370Z,92.90
2023-03-17T06:52:38.823Z,93.50
2023-03-17T06:55:06.695Z,93.40
2023-03-17T06:57:33.458Z,93.00
2023-03-17T07:00:00.383Z,92.40
2023-03-17T07:02:27.314Z,92.30
2023-03-17T07:04:53.846Z,91.90
2023-03-17T07:07:20.454Z,91.80
2023-03-17T07:09:47.207Z,91.40
2023-03-17T07:12:13.957Z,92.00
2023-03-17T07:14:40.875Z,92.50
2023-03-17T07:17:11.244Z,91.60
2023-03-17T07:19:37.787Z,90.70
2023-03-17T07:22:04.289Z,90.40
2023-03-17T07:24:31.080Z,90.30
2023-03-17T07:26:57.718Z,90.40
2023-03-17T07:29:24.365Z,90.60
2023-03-17T07:31:50.915Z,90.00
2023-03-17T07:34:17.439Z,88.80
2023-03-17T07:36:44.065Z,90.10
2023-03-17T07:39:12.010Z,90.20
2023-03-17T07:41:39.054Z,90.60
2023-03-17T07:44:05.566Z,90.30
2023-03-17T07:46:32.297Z,90.20
2023-03-17T07:48:59.159Z,88.40
2023-03-17T07:51:27.323Z,87.50
2023-03-17T07:53:55.118Z,86.20
2023-03-17T07:56:21.600Z,86.20
2023-03-17T07:58:48.114Z,86.70
2023-03-17T08:01:14.676Z,83.70
2023-03-17T08:03:41.813Z,82.60
2023-03-17T08:06:08.843Z,82.80
2023-03-17T08:08:35.361Z,82.80
2023-03-17T08:11:04.676Z,84.30
2023-03-17T08:13:32.281Z,81.00
2023-03-17T08:15:59.576Z,80.10
2023-03-17T08:18:26.386Z,78.90
2023-03-17T08:20:52.954Z,78.70
2023-03-17T08:23:20.714Z,78.40
2023-03-17T08:25:48.067Z,79.50
2023-03-17T08:28:14.948Z,80.10
2023-03-17T08:30:43.919Z,79.30
2023-03-17T08:33:10.700Z,79.90
2023-03-17T08:35:40.729Z,78.50
2023-03-17T08:38:08.000Z,78.50
2023-03-17T08:40:35.812Z,77.30
2023-03-17T08:43:03.377Z,76.50
2023-03-17T08:45:32.139Z,73.90
2023-03-17T08:47:58.884Z,72.40
2023-03-17T08:50:25.468Z,71.30
2023-03-17T08:52:53.496Z,69.70
2023-03-17T08:55:20.107Z,68.50
2023-03-17T08:57:46.788Z,69.70
2023-03-17T09:00:19.504Z,68.70
2023-03-17T09:02:46.960Z,68.40
2023-03-17T09:05:16.539Z,67.50
2023-03-17T09:07:43.171Z,67.20
2023-03-17T09:10:11.692Z,66.90
2023-03-17T09:12:38.251Z,68.00
2023-03-17T09:15:06.871Z,66.30
2023-03-17T09:17:34.019Z,67.00
2023-03-17T09:20:00.552Z,66.30
2023-03-17T09:22:27.124Z,64.00
2023-03-17T09:24:53.725Z,64.40
2023-03-17T09:27:20.194Z,65.50
2023-03-17T09:29:46.967Z,66.50
2023-03-17T09:32:13.513Z,65.40
2023-03-17T09:34:40.033Z,63.50
2023-03-17T09:37:06.539Z,63.90
2023-03-17T09:39:33.363Z,63.50
2023-03-17T09:44:54.853Z,63.10
2023-03-17T09:49:53.250Z,61.90
2023-03-17T09:52:29.085Z,62.40
2023-03-17T09:54:56.991Z,62.60
2023-03-17T09:57:35.950Z,61.50
2023-03-17T10:00:26.770Z,63.00
2023-03-17T10:02:55.841Z,64.00
2023-03-17T10:05:41.828Z,63.50
2023-03-17T10:08:32.122Z,62.80
2023-03-17T10:11:24.855Z,63.40
2023-03-17T10:14:26.472Z,63.30
2023-03-17T10:19:31.889Z,63.70
2023-03-17T10:22:15.339Z,61.10
2023-03-17T10:24:53.801Z,60.80
2023-03-17T10:27:20.864Z,61.60
2023-03-17T10:29:48.602Z,62.30
2023-03-17T10:32:15.516Z,62.00
2023-03-17T10:34:48.032Z,61.80
2023-03-17T10:37:23.283Z,62.00
2023-03-17T10:39:56.121Z,62.10
2023-03-17T10:42:32.371Z,62.80
2023-03-17T10:45:14.003Z,63.00
2023-03-17T10:47:46.459Z,62.00
2023-03-17T10:50:35.311Z,63.90
2023-03-17T10:53:17.616Z,62.30
2023-03-17T10:55:51.830Z,62.70
2023-03-17T10:58:36.534Z,61.90
2023-03-17T11:01:22.028Z,62.90
2023-03-17T11:03:48.975Z,64.00
2023-03-17T11:06:20.117Z,62.50
2023-03-17T11:08:54.027Z,62.00
2023-03-17T11:11:30.737Z,62.30
2023-03-17T11:14:18.830Z,62.90
2023-03-17T11:17:13.006Z,64.20
2023-03-17T11:20:20.063Z,62.80
2023-03-17T11:23:18.781Z,64.80
2023-03-17T11:26:01.066Z,63.80
2023-03-17T11:28:40.369Z,62.80
2023-03-17T11:34:28.060Z,65.10
2023-03-17T11:37:28.335Z,61.30
2023-03-17T11:40:21.256Z,61.70
2023-03-17T11:43:29.428Z,63.30
2023-03-17T11:48:09.711Z,61.00
2023-03-17T11:53:53.125Z,61.40
2023-03-17T11:57:21.115Z,59.90
2023-03-17T12:00:03.077Z,58.50
2023-03-17T12:02:58.108Z,59.70
2023-03-17T12:05:27.969Z,59.40
2023-03-17T12:08:59.003Z,59.40
2023-03-17T12:11:31.212Z,59.60
2023-03-17T12:14:27.126Z,60.20
2023-03-17T12:17:25.770Z,59.40
2023-03-17T12:20:24.478Z,59.70
2023-03-17T12:23:28.524Z,59.20
2023-03-17T12:28:02.131Z,59.60
2023-03-17T12:31:35.395Z,59.60
2023-03-17T12:35:53.620Z,59.60
2023-03-17T12:38:42.908Z,60.40
2023-03-17T12:43:08.290Z,60.20
2023-03-17T12:50:05.062Z,59.40
2023-03-17T12:53:13.552Z,60.20
2023-03-17T12:55:45.011Z,59.60
2023-03-17T12:58:42.050Z,60.50
2023-03-17T13:03:22.476Z,59.90
2023-03-17T13:05:57.634Z,60.30
2023-03-17T13:08:40.524Z,60.20
2023-03-17T13:11:28.696Z,60.60
2023-03-17T13:14:22.983Z,60.60
2023-03-17T13:16:49.502Z,61.30
2023-03-17T13:19:33.958Z,60.40
2023-03-17T13:25:34.342Z,59.70
2023-03-17T13:28:41.901Z,61.40
2023-03-17T13:31:32.711Z,60.50
2023-03-17T13:34:20.011Z,60.80
2023-03-17T13:37:19.560Z,60.10
2023-03-17T13:41:13.313Z,60.60
2023-03-17T13:44:28.398Z,61.20
2023-03-17T13:46:55.204Z,60.50
2023-03-17T13:49:30.595Z,60.80
2023-03-17T13:53:04.044Z,60.60
2023-03-17T13:56:01.887Z,61.00
2023-03-17T13:58:32.825Z,60.80
2023-03-17T14:01:06.459Z,60.10
2023-03-17T14:03:46.756Z,60.80
2023-03-17T14:06:16.456Z,60.80
2023-03-17T14:08:52.743Z,60.00
2023-03-17T14:11:39.135Z,59.60
2023-03-17T14:15:08.478Z,59.30
2023-03-17T14:17:48.237Z,59.60
2023-03-17T14:20:32.697Z,60.40
2023-03-17T14:23:05.831Z,59.70
2023-03-17T14:25:37.492Z,60.00
2023-03-17T14:28:10.025Z,59.60
2023-03-17T14:30:38.618Z,60.00
2023-03-17T14:33:30.008Z,59.80
2023-03-17T14:36:00.109Z,59.80
2023-03-17T14:38:34.585Z,59.60
2023-03-17T14:41:15.991Z,60.10
2023-03-17T14:43:44.094Z,59.70
2023-03-17T14:46:24.538Z,59.80
2023-03-17T14:49:15.113Z,60.00
2023-03-17T14:51:41.856Z,59.70
2023-03-17T14:54:24.282Z,59.60
2023-03-17T14:57:07.294Z,59.20
2023-03-17T14:59:41.700Z,59.70
2023-03-17T15:02:33.461Z,59.50
2023-03-17T15:05:41.959Z,58.90
2023-03-17T15:08:45.474Z,59.30
2023-03-17T15:11:39.283Z,60.20
2023-03-17T15:14:28.005Z,59.50
2023-03-17T15:16:55.885Z,59.50
2023-03-17T15:19:42.140Z,59.10
2023-03-17T15:22:42.554Z,59.80
2023-03-17T15:25:27.835Z,59.90
2023-03-17T15:27:55.902Z,59.60
2023-03-17T15:30:22.683Z,60.00
2023-03-17T15:33:01.458Z,59.30
2023-03-17T15:35:28.333Z,59.60
2023-03-17T15:37:56.450Z,59.60
2023-03-17T15:40:23.459Z,59.60
2023-03-17T15:42:49.940Z,59.70
2023-03-17T15:45:17.444Z,59.60
2023-03-17T15:47:46.597Z,59.50
2023-03-17T15:50:32.036Z,59.60
2023-03-17T15:52:58.624Z,60.40
2023-03-17T15:55:30.546Z,59.90
2023-03-17T15:57:59.887Z,60.00
2023-03-17T16:00:28.563Z,59.80
2023-03-17T16:03:01.892Z,61.00
2023-03-17T16:05:33.275Z,60.80
2023-03-17T16:07:59.882Z,61.50
2023-03-17T16:10:30.100Z,60.40
2023-03-17T16:12:57.291Z,60.50
2023-03-17T16:15:27.667Z,61.50
2023-03-17T16:17:59.974Z,61.60
2023-03-17T16:20:43.779Z,62.80
2023-03-17T16:23:26.347Z,63.40
2023-03-17T16:25:55.434Z,65.00
2023-03-17T16:28:30.041Z,67.00
2023-03-17T16:31:00.102Z,67.80
2023-03-17T16:33:37.453Z,70.70
2023-03-17T16:36:04.701Z,74.30
2023-03-17T16:38:33.360Z,73.90
2023-03-17T16:41:07.261Z,73.20
2023-03-17T16:43:37.115Z,76.70
2023-03-17T16:46:06.464Z,76.90
2023-03-17T16:48:33.416Z,79.20
2023-03-17T16:50:59.911Z,80.30
2023-03-17T16:53:26.525Z,80.10
2023-03-17T16:55:54.624Z,80.80
2023-03-17T16:58:33.619Z,80.10
2023-03-17T17:01:05.631Z,80.30
2023-03-17T17:03:32.164Z,78.90
2023-03-17T17:05:58.762Z,76.20
2023-03-17T17:08:25.414Z,79.40
2023-03-17T17:10:51.910Z,80.20
2023-03-17T17:13:18.429Z,81.90
2023-03-17T17:15:45.361Z,80.00
2023-03-17T17:18:20.985Z,80.50
2023-03-17T17:20:48.577Z,80.40
2023-03-17T17:23:22.121Z,82.30
2023-03-17T17:25:49.580Z,83.40
2023-03-17T17:28:20.627Z,84.60
2023-03-17T17:30:47.649Z,85.40
2023-03-17T17:33:16.187Z,84.20
2023-03-17T17:35:44.390Z,85.80
2023-03-17T17:38:27.872Z,86.60
2023-03-17T17:40:58.288Z,86.50
2023-03-17T17:43:24.985Z,87.00
2023-03-17T17:45:52.525Z,87.90
2023-03-17T17:48:22.397Z,89.10
2023-03-17T17:50:50.536Z,90.40
2023-03-17T17:53:17.288Z,91.00
2023-03-17T17:55:47.034Z,90.80
2023-03-17T17:58:16.527Z,89.80
2023-03-17T18:00:43.337Z,88.30
2023-03-17T18:03:10.304Z,88.30
2023-03-17T18:05:37.061Z,89.40
2023-03-17T18:08:04.788Z,90.30
2023-03-17T18:10:32.164Z,90.70
2023-03-17T18:12:58.785Z,90.40
2023-03-17T18:15:27.439Z,90.80
2023-03-17T18:17:54.734Z,89.80
2023-03-17T18:20:22.999Z,89.90
2023-03-17T18:22:51.055Z,88.00
2023-03-17T18:25:18.662Z,88.00
2023-03-17T18:27:46.416Z,88.40
2023-03-17T18:30:28.116Z,88.50
2023-03-17T18:33:07.067Z,88.70
2023-03-17T18:35:34.742Z,87.90
2023-03-17T18:38:01.416Z,88.30
2023-03-17T18:40:28.053Z,88.70
2023-03-17T18:42:55.146Z,89.20
2023-03-17T18:45:21.713Z,89.10
2023-03-17T18:47:48.216Z,89.10
2023-03-17T18:50:16.578Z,90.10
2023-03-17T18:52:44.191Z,90.90
2023-03-17T18:55:13.112Z,91.10
2023-03-17T18:57:43.107Z,91.90
2023-03-17T19:00:14.295Z,92.80
2023-03-17T19:02:40.883Z,92.80
2023-03-17T19:05:08.253Z,93.10
2023-03-17T19:07:35.731Z,93.40
2023-03-17T19:10:03.759Z,93.60
2023-03-17T19:12:30.971Z,93.70
2023-03-17T19:14:58.401Z,93.70
2023-03-17T19:17:24.853Z,93.70
2023-03-17T19:19:51.471Z,94.20
2023-03-17T19:22:18.038Z,94.10
2023-03-17T19:24:45.278Z,93.90
2023-03-17T19:27:11.876Z,93.90
2023-03-17T19:29:38.365Z,94.20
2023-03-17T19:32:08.173Z,93.40
2023-03-17T19:34:34.666Z,92.90
2023-03-17T19:37:03.509Z,92.40
2023-03-17T19:39:30.614Z,92.10
2023-03-17T19:41:58.396Z,91.80
2023-03-17T19:44:25.867Z,91.70
2023-03-17T19:46:52.346Z,91.60
2023-03-17T19:49:20.296Z,91.60
2023-03-17T19:51:46.799Z,91.90
2023-03-17T19:54:13.298Z,92.00
2023-03-17T19:56:39.884Z,92.40
2023-03-17T19:59:08.094Z,93.00
2023-03-17T20:01:36.950Z,93.10
2023-03-17T20:04:05.930Z,93.20
2023-03-17T20:06:33.759Z,93.70
2023-03-17T20:09:03.021Z,94.20
2023-03-17T20:11:33.000Z,94.40
2023-03-17T20:14:01.196Z,94.50
2023-03-17T20:16:31.099Z,94.00
2023-03-17T20:18:57.572Z,93.40
2023-03-17T20:21:24.237Z,93.10
2023-03-17T20:23:50.780Z,93.50
2023-03-17T20:26:18.312Z,93.60
2023-03-17T20:28:45.406Z,93.40
2023-03-17T20:31:12.593Z,93.40
2023-03-17T20:33:39.114Z,93.30
2023-03-17T20:36:06.292Z,92.90
2023-03-17T20:38:36.094Z,92.60
2023-03-17T20:41:16.453Z,92.40
2023-03-17T20:43:45.247Z,92.60
2023-03-17T20:46:24.117Z,93.80
2023-03-17T20:48:57.579Z,95.00
2023-03-17T20:51:25.786Z,95.40
2023-03-17T20:53:54.250Z,95.90
2023-03-17T20:56:23.990Z,96.20
2023-03-17T20:58:52.377Z,96.50
2023-03-17T21:01:21.208Z,96.40
2023-03-17T21:03:49.051Z,96.70
2023-03-17T21:06:16.920Z,96.80
2023-03-17T21:08:45.315Z,96.30
2023-03-17T21:11:17.963Z,96.50
2023-03-17T21:13:44.761Z,96.50
2023-03-17T21:16:24.021Z,96.80
2023-03-17T21:18:51.777Z,97.40
2023-03-17T21:21:19.404Z,97.70
2023-03-17T21:23:46.214Z,97.80
2023-03-17T21:26:14.154Z,97.70
2023-03-17T21:28:41.870Z,98.00
2023-03-17T21:31:10.107Z,97.80
2023-03-17T21:33:37.102Z,97.80
2023-03-17T21:36:04.892Z,98.00
2023-03-17T21:38:31.412Z,98.40
2023-03-17T21:41:16.931Z,98.30
2023-03-17T21:43:43.750Z,98.30
2023-03-17T21:46:11.121Z,98.10
2023-03-17T21:48:38.058Z,98.20
2023-03-17T21:51:04.813Z,98.50
2023-03-17T21:53:31.286Z,99.00
2023-03-17T21:55:57.938Z,99.20
2023-03-17T21:58:25.139Z,99.40
2023-03-17T22:00:52.135Z,99.20
2023-03-17T22:03:18.933Z,98.90
2023-03-17T22:05:46.409Z,98.60
2023-03-17T22:08:13.651Z,98.70
2023-03-17T22:10:40.429Z,98.80
2023-03-17T22:13:06.922Z,99.00
2023-03-17T22:15:33.382Z,99.80
2023-03-17T22:17:59.860Z,99.90
2023-03-17T22:20:26.333Z,99.80
2023-03-17T22:22:52.947Z,99.90
2023-03-17T22:25:21.123Z,99.90
2023-03-17T22:27:49.190Z,99.90
2023-03-17T22:30:16.155Z,99.90
2023-03-17T22:32:42.674Z,99.90
2023-03-17T22:35:10.392Z,99.90
2023-03-17T22:37:37.213Z,99.90
2023-03-17T22:40:05.631Z,99.90
2023-03-17T22:42:32.848Z,99.40
2023-03-17T22:44:59.317Z,99.70
2023-03-17T22:47:25.994Z,99.90
2023-03-17T22:49:52.502Z,99.90
2023-03-17T22:52:18.964Z,99.90
2023-03-17T22:54:45.456Z,99.90
2023-03-17T22:57:11.941Z,99.90
2023-03-17T22:59:38.395Z,99.90
2023-03-17T23:02:05.638Z,99.90
2023-03-17T23:04:33.559Z,99.90
2023-03-17T23:07:00.038Z,99.90
2023-03-17T23:09:26.533Z,99.90
2023-03-17T23:11:53.210Z,99.90
2023-03-17T23:14:19.913Z,99.90
2023-03-17T23:16:47.361Z,99.90
2023-03-17T23:19:13.896Z,99.90
2023-03-17T23:21:40.510Z,99.90
2023-03-17T23:24:08.008Z,99.90
2023-03-17T23:26:36.182Z,99.90
2023-03-17T23:29:06.278Z,99.90
2023-03-17T23:31:33.335Z,99.90
2023-03-17T23:34:00.478Z,99.90
2023-03-17T23:36:26.959Z,99.90
2023-03-17T23:38:53.448Z,99.90
2023-03-17T23:41:20.040Z,99.90
2023-03-17T23:43:46.533Z,99.90
2023-03-17T23:46:13.924Z,99.90
2023-03-17T23:48:42.730Z,99.90
2023-03-17T23:51:11.663Z,99.90
2023-03-17T23:53:39.007Z,99.90
2023-03-17T23:56:07.719Z,99.90
2023-03-17T23:58:34.178Z,99.90
